createdAt,value
2019-04-07T00:04:36.317Z,96718.58
2019-04-07T00:07:26.542Z,96737.73
2019-04-07T00:10:15.534Z,96739.80
2019-04-07T00:13:05.920Z,96668.94
2019-04-07T00:15:54.731Z,96654.06
2019-04-07T00:18:43.521Z,96738.81
2019-04-07T00:21:51.345Z,96670.31
2019-04-07T00:24:40.128Z,96740.39
2019-04-07T00:27:28.924Z,96740.94
2019-04-07T00:30:18.085Z,96745.08
2019-04-07T00:33:08.242Z,96742.72
2019-04-07T00:35:57.019Z,96686.41
2019-04-07T00:38:46.129Z,96741.71
2019-04-07T00:41:36.482Z,96747.86
2019-04-07T00:44:26.852Z,96739.42
2019-04-07T00:47:15.746Z,96748.24
2019-04-07T00:53:33.502Z,96632.06
2019-04-07T00:56:15.023Z,96746.26
2019-04-07T00:59:04.309Z,96498.55
2019-04-07T01:01:54.594Z,96747.41
2019-04-07T01:04:44.874Z,96747.02
2019-04-07T01:07:33.678Z,96615.85
2019-04-07T01:10:22.469Z,96751.41
2019-04-07T01:13:11.885Z,96753.79
2019-04-07T01:16:01.777Z,96753.84
2019-04-07T01:18:50.581Z,96755.48
2019-04-07T01:21:41.086Z,96758.03
2019-04-07T01:24:29.910Z,96660.08
2019-04-07T01:27:19.184Z,96753.48
2019-04-07T01:30:30.409Z,96753.80
2019-04-07T01:33:20.771Z,96749.50
2019-04-07T01:36:29.194Z,96746.73
2019-04-07T01:39:19.458Z,96753.55
2019-04-07T01:42:29.054Z,96757.38
2019-04-07T01:45:36.984Z,96752.88
2019-04-07T01:48:44.816Z,96750.05
2019-04-07T01:51:52.985Z,96752.48
2019-04-07T01:55:00.811Z,96753.33
2019-04-07T01:57:42.232Z,96754.69
2019-04-07T02:00:50.537Z,96752.78
2019-04-07T02:03:58.503Z,96730.28
2019-04-07T02:07:07.269Z,96749.64
2019-04-07T02:10:16.293Z,96751.72
2019-04-07T02:13:24.211Z,96754.09
2019-04-07T02:16:32.031Z,96747.46
2019-04-07T02:19:40.366Z,96746.59
2019-04-07T02:28:47.272Z,96751.59
2019-04-07T02:31:36.040Z,96756.09
2019-04-07T02:34:45.575Z,96690.31
2019-04-07T02:37:53.489Z,96748.05
2019-04-07T02:43:56.888Z,96740.18
2019-04-07T02:47:04.691Z,96740.38
2019-04-07T02:50:12.534Z,96533.42
2019-04-07T02:53:20.317Z,96498.79
2019-04-07T02:56:29.259Z,96722.13
2019-04-07T02:59:14.547Z,96569.17
2019-04-07T03:02:03.247Z,96709.94
2019-04-07T03:04:52.444Z,96732.22
2019-04-07T03:08:01.538Z,96735.12
2019-04-07T03:11:09.665Z,96729.26
2019-04-07T03:14:17.851Z,96728.75
2019-04-07T03:17:25.806Z,96536.34
2019-04-07T03:23:44.043Z,96536.16
2019-04-07T03:30:03.570Z,96603.45
2019-04-07T03:33:15.338Z,96738.67
2019-04-07T03:36:23.597Z,96741.13
2019-04-07T03:39:30.591Z,96743.68
2019-04-07T03:42:38.662Z,96744.81
2019-04-07T03:45:46.692Z,96742.43
2019-04-07T03:48:55.342Z,96639.73
2019-04-07T03:55:13.418Z,96741.25
2019-04-07T03:58:21.225Z,96735.91
2019-04-07T04:01:30.046Z,96733.56
2019-04-07T04:04:39.499Z,96737.16
2019-04-07T04:10:58.094Z,96523.91
2019-04-07T04:14:06.105Z,96612.62
2019-04-07T04:16:54.906Z,96510.57
2019-04-07T04:19:44.005Z,96747.56
2019-04-07T04:22:34.191Z,96747.55
2019-04-07T04:25:24.448Z,96532.25
2019-04-07T04:28:14.324Z,96742.56
2019-04-07T04:31:03.292Z,96530.21
2019-04-07T04:33:54.437Z,96499.38
2019-04-07T04:36:44.703Z,96751.66
2019-04-07T04:39:35.491Z,96755.21
2019-04-07T04:42:25.227Z,96764.48
2019-04-07T04:45:34.928Z,96769.17
2019-04-07T04:51:35.527Z,96676.64
2019-04-07T04:54:21.984Z,96776.56
2019-04-07T04:57:11.199Z,96631.09
2019-04-07T04:59:54.044Z,96786.39
2019-04-07T05:02:44.184Z,96787.91
2019-04-07T05:05:33.431Z,96790.62
2019-04-07T05:08:22.246Z,96797.25
2019-04-07T05:11:11.024Z,96592.63
2019-04-07T05:14:00.288Z,96807.56
2019-04-07T05:16:50.439Z,96561.48
2019-04-07T05:19:42.637Z,96806.63
2019-04-07T05:22:29.891Z,96656.70
2019-04-07T05:25:20.687Z,96811.20
2019-04-07T05:28:11.325Z,96808.81
2019-04-07T05:31:01.249Z,96813.42
2019-04-07T05:33:50.043Z,96821.44
2019-04-07T05:36:38.938Z,96822.11
2019-04-07T05:39:29.343Z,96834.67
2019-04-07T05:42:18.824Z,96833.78
2019-04-07T05:45:10.015Z,96833.51
2019-04-07T05:48:00.045Z,96834.83
2019-04-07T05:50:50.454Z,96605.72
2019-04-07T05:53:44.079Z,96836.66
2019-04-07T05:56:31.578Z,96696.73
2019-04-07T05:59:14.700Z,96837.46
2019-04-07T06:02:04.221Z,96835.27
2019-04-07T06:04:54.371Z,96754.85
2019-04-07T06:07:43.736Z,96843.63
2019-04-07T06:10:33.773Z,96843.28
2019-04-07T06:13:22.571Z,96845.84
2019-04-07T06:16:11.373Z,96842.09
2019-04-07T06:19:01.792Z,96844.09
2019-04-07T06:21:50.718Z,96846.00
2019-04-07T06:24:39.503Z,96851.46
2019-04-07T06:27:29.759Z,96849.76
2019-04-07T06:33:28.544Z,96854.81
2019-04-07T06:36:20.265Z,96844.95
2019-04-07T06:39:09.519Z,96850.08
2019-04-07T06:42:01.447Z,96850.97
2019-04-07T06:44:52.213Z,96848.63
2019-04-07T06:51:09.573Z,96840.71
2019-04-07T06:54:21.622Z,96844.91
2019-04-07T06:57:28.210Z,96836.39
2019-04-07T07:00:11.612Z,96832.11
2019-04-07T07:03:19.439Z,96826.37
2019-04-07T07:12:39.124Z,96829.16
2019-04-07T07:15:46.071Z,96836.17
2019-04-07T07:24:29.841Z,96833.16
2019-04-07T07:27:18.637Z,96839.14
2019-04-07T07:30:07.816Z,96835.75
2019-04-07T07:32:58.131Z,96620.60
2019-04-07T07:35:49.258Z,96835.14
2019-04-07T07:38:38.459Z,96833.55
2019-04-07T07:41:29.007Z,96663.77
2019-04-07T07:44:18.885Z,96726.97
2019-04-07T07:47:07.948Z,96848.36
2019-04-07T07:49:58.662Z,96660.98
2019-04-07T07:52:51.277Z,96845.66
2019-04-07T07:55:39.263Z,96839.47
2019-04-07T07:58:31.504Z,96845.91
2019-04-07T08:01:13.859Z,96843.30
2019-04-07T08:04:02.011Z,96845.02
2019-04-07T08:06:51.285Z,96842.27
2019-04-07T08:09:42.026Z,96711.95
2019-04-07T08:12:34.310Z,96667.27
2019-04-07T08:15:25.524Z,96854.38
2019-04-07T08:18:12.464Z,96856.45
2019-04-07T08:21:03.294Z,96849.86
2019-04-07T08:23:53.518Z,96633.67
2019-04-07T08:26:43.720Z,96654.72
2019-04-07T08:29:37.113Z,96861.58
2019-04-07T08:32:27.021Z,96864.00
2019-04-07T08:35:15.391Z,96860.17
2019-04-07T08:38:05.765Z,96861.85
2019-04-07T08:40:56.700Z,96657.17
2019-04-07T08:43:46.756Z,96801.95
2019-04-07T08:46:40.065Z,96802.14
2019-04-07T08:49:26.081Z,96865.55
2019-04-07T08:52:15.283Z,96861.25
2019-04-07T08:55:06.080Z,96799.76
2019-04-07T09:00:57.445Z,96669.22
2019-04-07T09:03:46.256Z,96865.59
2019-04-07T09:06:35.044Z,96865.41
2019-04-07T09:09:32.625Z,96864.39
2019-04-07T09:12:15.216Z,96867.33
2019-04-07T09:15:25.972Z,96867.61
2019-04-07T09:18:33.787Z,96872.95
2019-04-07T09:21:42.814Z,96760.52
2019-04-07T09:27:51.089Z,96868.83
2019-04-07T09:31:02.162Z,96869.80
2019-04-07T09:34:09.426Z,96860.96
2019-04-07T09:40:16.494Z,96856.19
2019-04-07T09:49:31.037Z,96874.71
2019-04-07T09:52:39.583Z,96876.52
2019-04-07T09:58:19.302Z,96870.78
2019-04-07T10:01:28.795Z,96875.30
2019-04-07T10:04:38.657Z,96876.77
2019-04-07T10:07:46.842Z,96878.98
2019-04-07T10:10:54.873Z,96879.65
2019-04-07T10:14:03.384Z,96882.22
2019-04-07T10:17:12.271Z,96876.45
2019-04-07T10:20:22.337Z,96730.95
2019-04-07T10:32:34.043Z,96879.98
2019-04-07T10:35:41.809Z,96877.55
2019-04-07T10:41:49.582Z,96872.39
2019-04-07T10:47:57.822Z,96740.88
2019-04-07T10:51:05.688Z,96882.77
2019-04-07T10:59:51.312Z,96876.22
2019-04-07T11:03:00.888Z,96880.98
2019-04-07T11:09:07.988Z,96814.31
2019-04-07T11:12:15.792Z,96867.97
2019-04-07T11:15:25.933Z,96869.88
2019-04-07T11:18:33.784Z,96863.92
2019-04-07T11:21:41.611Z,96863.19
2019-04-07T11:24:49.416Z,96874.64
2019-04-07T11:27:57.250Z,96875.70
2019-04-07T11:31:05.726Z,96872.35
2019-04-07T11:33:54.549Z,96869.72
2019-04-07T11:43:02.288Z,96869.22
2019-04-07T11:46:10.868Z,96865.95
2019-04-07T11:49:19.641Z,96866.14
2019-04-07T11:55:37.576Z,96869.09
2019-04-07T11:58:28.988Z,96691.14
2019-04-07T12:01:31.107Z,96862.88
2019-04-07T12:04:38.931Z,96863.83
2019-04-07T12:11:02.204Z,96866.41
2019-04-07T12:14:06.320Z,96864.27
2019-04-07T12:17:15.029Z,96871.00
2019-04-07T12:23:40.231Z,96703.63
2019-04-07T12:26:48.122Z,96866.70
2019-04-07T12:29:55.931Z,96865.65
2019-04-07T12:35:40.513Z,96865.60
2019-04-07T12:38:29.071Z,96862.85
2019-04-07T12:44:33.239Z,96850.66
2019-04-07T12:47:41.176Z,96855.72
2019-04-07T12:50:50.315Z,96855.56
2019-04-07T12:53:39.895Z,96743.47
2019-04-07T12:56:31.693Z,96852.70
2019-04-07T13:02:17.927Z,96690.47
2019-04-07T13:11:47.012Z,96749.94
2019-04-07T13:14:54.591Z,96846.72
2019-04-07T13:18:06.113Z,96838.83
2019-04-07T13:21:13.379Z,96840.03
2019-04-07T13:24:30.314Z,96844.69
2019-04-07T13:27:35.230Z,96840.23
2019-04-07T13:33:37.160Z,96666.72
2019-04-07T13:36:46.345Z,96813.83
2019-04-07T13:39:54.521Z,96836.58
2019-04-07T13:43:04.212Z,96838.83
2019-04-07T13:46:18.871Z,96833.83
2019-04-07T13:49:24.153Z,96833.46
2019-04-07T13:55:19.874Z,96836.42
2019-04-07T13:58:31.018Z,96834.00
2019-04-07T14:01:37.262Z,96835.14
2019-04-07T14:07:41.004Z,96834.06
2019-04-07T14:10:57.995Z,96837.91
2019-04-07T14:13:46.921Z,96836.14
2019-04-07T14:16:54.731Z,96837.80
2019-04-07T14:20:02.555Z,96835.10
2019-04-07T14:32:02.393Z,96829.53
2019-04-07T14:35:10.467Z,96828.68
2019-04-07T14:38:18.952Z,96829.84
2019-04-07T14:50:21.197Z,96684.06
2019-04-07T14:53:30.270Z,96836.25
2019-04-07T14:59:47.342Z,96826.47
2019-04-07T15:02:36.504Z,96824.83
2019-04-07T15:08:41.997Z,96835.51
2019-04-07T15:14:32.841Z,96835.84
2019-04-07T15:17:22.030Z,96836.00
2019-04-07T15:20:14.376Z,96831.37
2019-04-07T15:23:02.843Z,96830.36
2019-04-07T15:25:53.012Z,96838.14
2019-04-07T15:28:41.814Z,96703.84
2019-04-07T15:31:30.901Z,96705.85
2019-04-07T15:34:21.191Z,96829.46
2019-04-07T15:37:10.245Z,96833.95
2019-04-07T15:40:02.709Z,96836.26
2019-04-07T15:42:51.273Z,96839.19
2019-04-07T15:45:34.311Z,96836.97
2019-04-07T15:48:25.830Z,96841.95
2019-04-07T15:51:14.395Z,96846.33
2019-04-07T15:54:04.184Z,96849.20
2019-04-07T15:56:53.950Z,96855.23
2019-04-07T15:59:43.830Z,96856.17
2019-04-07T16:02:33.482Z,96859.39
2019-04-07T16:05:23.145Z,96707.03
2019-04-07T16:08:13.583Z,96863.33
2019-04-07T16:11:02.526Z,96863.86
2019-04-07T16:13:52.001Z,96700.21
2019-04-07T16:16:42.622Z,96776.07
2019-04-07T16:19:39.891Z,96873.27
2019-04-07T16:22:22.885Z,96864.31
2019-04-07T16:25:11.820Z,96872.64
2019-04-07T16:28:00.681Z,96870.80
2019-04-07T16:30:51.941Z,96873.82
2019-04-07T16:33:40.987Z,96770.02
2019-04-07T16:36:30.846Z,96874.01
2019-04-07T16:39:21.000Z,96768.08
2019-04-07T16:42:10.837Z,96867.58
2019-04-07T16:44:53.827Z,96774.41
2019-04-07T16:47:43.338Z,96872.50
2019-04-07T16:50:33.326Z,96875.55
2019-04-07T16:53:22.129Z,96877.63
2019-04-07T16:56:11.326Z,96735.05
2019-04-07T16:59:02.573Z,96885.81
2019-04-07T17:01:52.881Z,96884.26
2019-04-07T17:04:43.119Z,96888.80
2019-04-07T17:07:33.933Z,96889.24
2019-04-07T17:10:26.121Z,96888.51
2019-04-07T17:13:20.119Z,96893.25
2019-04-07T17:16:04.727Z,96896.98
2019-04-07T17:18:56.230Z,96900.48
2019-04-07T17:21:45.561Z,96902.67
2019-04-07T17:24:34.577Z,96901.45
2019-04-07T17:27:24.890Z,96900.61
2019-04-07T17:30:35.936Z,96908.45
2019-04-07T17:33:25.186Z,96727.09
2019-04-07T17:36:17.624Z,96911.56
2019-04-07T17:39:45.011Z,96909.42
2019-04-07T17:42:33.951Z,96916.06
2019-04-07T17:45:23.535Z,96921.20
2019-04-07T17:48:38.576Z,96926.23
2019-04-07T17:51:42.215Z,96918.61
2019-04-07T17:54:52.501Z,96923.81
2019-04-07T18:00:55.405Z,96933.70
2019-04-07T18:04:03.769Z,96939.98
2019-04-07T18:07:12.105Z,96943.36
2019-04-07T18:10:22.547Z,96942.58
2019-04-07T18:13:43.405Z,96945.91
2019-04-07T18:19:48.655Z,96762.47
2019-04-07T18:26:08.472Z,96957.68
2019-04-07T18:29:15.399Z,96892.52
2019-04-07T18:32:03.990Z,96964.97
2019-04-07T18:34:52.856Z,96969.81
2019-04-07T18:38:02.266Z,96974.07
2019-04-07T18:41:11.150Z,96972.58
2019-04-07T18:44:04.544Z,96978.16
2019-04-07T18:47:08.200Z,96977.51
2019-04-07T18:50:16.601Z,96985.06
2019-04-07T18:53:27.580Z,96985.61
2019-04-07T18:56:34.641Z,96884.70
2019-04-07T18:59:44.220Z,96994.94
2019-04-07T19:02:53.645Z,97003.33
2019-04-07T19:09:11.145Z,96946.31
2019-04-07T19:12:21.691Z,97004.72
2019-04-07T19:15:29.731Z,97009.59
2019-04-07T19:18:40.216Z,97007.11
2019-04-07T19:21:48.433Z,97011.88
2019-04-07T19:24:56.286Z,96985.50
2019-04-07T19:28:05.032Z,96833.61
2019-04-07T19:31:17.481Z,97016.88
2019-04-07T19:34:23.677Z,97019.81
2019-04-07T19:37:32.438Z,96992.37
2019-04-07T19:40:23.534Z,97016.47
2019-04-07T19:43:12.216Z,97023.93
2019-04-07T19:46:19.068Z,96811.77
2019-04-07T19:52:26.376Z,97024.75
2019-04-07T19:55:34.617Z,97019.13
2019-04-07T20:07:33.192Z,97022.14
2019-04-07T20:10:40.978Z,97022.44
2019-04-07T20:13:49.047Z,97029.78
2019-04-07T20:16:57.769Z,97026.11
2019-04-07T20:20:08.882Z,97031.08
2019-04-07T20:23:17.334Z,97041.04
2019-04-07T20:26:24.622Z,97036.28
2019-04-07T20:29:34.111Z,97038.45
2019-04-07T20:32:42.745Z,97039.80
2019-04-07T20:39:00.480Z,97040.13
2019-04-07T20:42:08.686Z,97040.34
2019-04-07T20:45:14.291Z,97040.66
2019-04-07T20:48:01.275Z,97039.12
2019-04-07T20:54:09.735Z,97032.58
2019-04-07T20:57:23.669Z,96907.20
2019-04-07T21:00:28.545Z,97039.00
2019-04-07T21:03:36.358Z,97036.46
2019-04-07T21:09:39.656Z,97039.05
2019-04-07T21:12:31.061Z,97040.92
2019-04-07T21:18:38.961Z,97042.59
2019-04-07T21:21:47.878Z,97039.88
2019-04-07T21:24:55.827Z,97042.45
2019-04-07T21:28:06.096Z,97040.05
2019-04-07T21:31:15.969Z,96832.08
2019-04-07T21:37:02.764Z,97047.60
2019-04-07T21:40:10.573Z,96806.03
2019-04-07T21:43:18.378Z,97021.42
2019-04-07T21:46:02.530Z,96825.15
2019-04-07T21:52:06.689Z,97040.32
2019-04-07T21:58:26.635Z,97046.17
2019-04-07T22:01:37.708Z,97044.36
2019-04-07T22:04:44.119Z,96851.52
2019-04-07T22:07:51.927Z,96807.03
2019-04-07T22:10:41.536Z,97051.66
2019-04-07T22:13:34.579Z,97045.66
2019-04-07T22:16:23.934Z,97051.91
2019-04-07T22:19:13.982Z,97054.16
2019-04-07T22:22:02.755Z,97049.86
2019-04-07T22:24:51.537Z,96842.73
2019-04-07T22:27:41.061Z,97056.03
2019-04-07T22:30:30.839Z,97056.36
2019-04-07T22:33:22.876Z,97051.63
2019-04-07T22:36:13.918Z,97056.09
2019-04-07T22:39:02.428Z,97051.91
2019-04-07T22:41:51.207Z,96834.84
2019-04-07T22:44:33.569Z,97052.37
2019-04-07T22:47:23.323Z,96815.64
2019-04-07T22:50:12.975Z,97059.99
2019-04-07T22:53:01.794Z,97058.03
2019-04-07T22:55:50.628Z,97070.86
2019-04-07T22:58:40.179Z,97063.55
2019-04-07T23:01:29.895Z,97033.08
2019-04-07T23:04:18.673Z,96936.31
2019-04-07T23:07:08.230Z,97063.14
2019-04-07T23:09:58.035Z,97066.83
2019-04-07T23:12:47.824Z,96947.25
2019-04-07T23:15:43.938Z,97062.80
2019-04-07T23:18:27.839Z,97063.61
2019-04-07T23:21:17.264Z,97064.63
2019-04-07T23:24:06.113Z,97065.67
2019-04-07T23:26:54.893Z,97051.43
2019-04-07T23:29:44.359Z,97061.50
2019-04-07T23:32:34.295Z,97064.88
2019-04-07T23:35:23.081Z,96833.62
2019-04-07T23:38:11.993Z,97059.20
2019-04-07T23:41:01.181Z,97064.14
2019-04-07T23:43:51.326Z,96831.86
2019-04-07T23:46:33.770Z,97071.41
2019-04-07T23:49:22.612Z,97066.33
2019-04-07T23:52:11.371Z,97066.56
2019-04-07T23:55:00.179Z,97065.95
2019-04-07T23:57:48.944Z,96815.34
